Normandie — FNNO — position and weather

sailwx.info

Track history (hours):
 
Tides and Currents Weather Stations Pressure Air Temp Water Temp Dewpoint Dewpoint Depression Visibility Wind Speed Wind Dir Waves Ship Positions

Normandie

Operator: Brittany Ferries

Last reported at 2018-Jul-22 03:00 UTC. Time now 2018-Jul-22 03:20 UTC.
Position N 49°40' W 000°25'.

Length 161 m; beam 27 m.

Type: Passenger vessel. MMSI: 227273000.

Date/timePositionNaut miles runAvg speedWind from/ knotsBaromVisibWave heightAir tempDewpointWater temp
2018-Jul-22 03:00N 49°40' W 000°25'611.3
2018-Jul-22 02:30N 49°45' W 000°28'815.2
2018-Jul-22 02:00N 49°52' W 000°33'815.9
2018-Jul-22 01:31N 49°60' W 000°38'815.7
2018-Jul-22 01:01N 50°07' W 000°42'815.5
2018-Jul-22 00:31N 50°14' W 000°45'815.5
2018-Jul-22 00:01N 50°22' W 000°48'815.3
2018-Jul-21 23:30N 50°29' W 000°54'815.4
2018-Jul-21 23:00N 50°36' W 000°57'815.4
2018-Jul-21 22:30N 50°43' W 001°02'612.2
2018-Jul-21 22:00N 50°49' W 001°07'1 1.1
2018-Jul-21 21:30N 50°49' W 001°06'0 0.0
2018-Jul-21 21:00N 50°49' W 001°06'0 0.0
2018-Jul-21 20:30N 50°49' W 001°06'2 3.3
2018-Jul-21 20:00N 50°47' W 001°06'816.1
2018-Jul-21 19:30N 50°40' W 000°60'1019.8
2018-Jul-21 19:00N 50°31' W 000°54'1019.2
2018-Jul-21 18:30N 50°22' W 000°49'1119.6
2018-Jul-21 17:57N 50°12' W 000°44'919.5
2018-Jul-21 17:30N 50°04' W 000°38'1019.3
2018-Jul-21 17:00N 49°55' W 000°32'1019.3
2018-Jul-21 16:30N 49°46' W 000°28'1019.2
2018-Jul-21 16:00N 49°37' W 000°23'1019.2
2018-Jul-21 15:30N 49°27' W 000°18'918.1
2018-Jul-21 15:01N 49°19' W 000°15'2 3.0
2018-Jul-21 14:30N 49°17' W 000°15'0 0.0
2018-Jul-21 13:30N 49°17' W 000°15'0 0.1
2018-Jul-21 13:00N 49°17' W 000°15'611.7
2018-Jul-21 12:30N 49°23' W 000°15'1019.8
2018-Jul-21 12:00N 49°32' W 000°20'1019.9
2018-Jul-21 11:31N 49°41' W 000°26'1019.7
2018-Jul-21 11:01N 49°50' W 000°33'1019.4
2018-Jul-21 10:30N 49°59' W 000°39'1019.2
2018-Jul-21 10:00N 50°08' W 000°44'2119.3
2018-Jul-21 08:55N 50°29' W 000°54'819.4
2018-Jul-21 08:30N 50°36' W 000°58'918.1
2018-Jul-21 08:01N 50°44' W 001°04'5 9.4
2018-Jul-21 07:30N 50°49' W 001°06'0 0.0
2018-Jul-21 07:00N 50°49' W 001°06'0 0.0
2018-Jul-21 06:30N 50°49' W 001°06'0 0.0
2018-Jul-21 06:00N 50°49' W 001°06'0 0.0
2018-Jul-21 05:30N 50°49' W 001°06'3 5.1
2018-Jul-21 05:01N 50°46' W 001°05'917.1
2018-Jul-21 04:31N 50°39' W 000°58'816.1
2018-Jul-21 04:00N 50°31' W 000°54'2815.1
2018-Jul-21 02:08N 50°05' W 000°38'2 9.7
2018-Jul-21 01:55N 50°03' W 000°36'410.1
2018-Jul-21 01:30N 49°59' W 000°35'510.3
2018-Jul-21 01:00N 49°54' W 000°33'510.2
2018-Jul-21 00:31N 49°49' W 000°29'510.6
2018-Jul-21 00:00N 49°44' W 000°27'510.9
2018-Jul-20 23:30N 49°39' W 000°24'511.0
2018-Jul-20 23:00N 49°34' W 000°22'611.1
2018-Jul-20 22:30N 49°29' W 000°19'611.1
2018-Jul-20 22:00N 49°24' W 000°16'611.2
2018-Jul-20 21:31N 49°18' W 000°15'1 1.3
2018-Jul-20 21:01N 49°17' W 000°15'0 0.0
2018-Jul-20 20:30N 49°17' W 000°15'0 0.0
2018-Jul-20 20:00N 49°17' W 000°15'0 0.0
2018-Jul-20 19:31N 49°17' W 000°15'3 6.9
2018-Jul-20 19:00N 49°21' W 000°14'918.7
2018-Jul-20 18:30N 49°30' W 000°18'1019.2
2018-Jul-20 18:00N 49°39' W 000°24'1019.1
2018-Jul-20 17:30N 49°47' W 000°29'1019.1
2018-Jul-20 17:00N 49°57' W 000°34'1019.3
2018-Jul-20 16:30N 50°06' W 000°38'2419.8
2018-Jul-20 15:17N 50°29' W 000°50'619.7
2018-Jul-20 14:59N 50°34' W 000°53'918.3
2018-Jul-20 14:30N 50°42' W 001°01'714.6
2018-Jul-20 14:00N 50°48' W 001°07'1 2.2
2018-Jul-20 13:30N 50°49' W 001°06'0 0.0
2018-Jul-20 13:00N 50°49' W 001°06'0 0.0
2018-Jul-20 12:30N 50°49' W 001°06'1 2.0
2018-Jul-20 12:00N 50°48' W 001°07'713.4
2018-Jul-20 11:30N 50°43' W 000°60'917.6
2018-Jul-20 11:00N 50°35' W 000°55'918.3
2018-Jul-20 10:30N 50°26' W 000°50'918.6
2018-Jul-20 10:00N 50°17' W 000°45'918.9
2018-Jul-20 09:30N 50°09' W 000°39'918.9
2018-Jul-20 09:00N 49°59' W 000°36'1019.7
2018-Jul-20 08:30N 49°50' W 000°31'1020.6
2018-Jul-20 08:00N 49°40' W 000°26'1020.4
2018-Jul-20 07:30N 49°31' W 000°20'1020.3
2018-Jul-20 07:00N 49°21' W 000°15'4 7.9
2018-Jul-20 06:31N 49°17' W 000°15'0 0.0
2018-Jul-20 06:01N 49°17' W 000°15'0 0.0
2018-Jul-20 05:30N 49°17' W 000°15'0 0.0
2018-Jul-20 05:01N 49°17' W 000°15'0 0.1
2018-Jul-20 04:30N 49°17' W 000°15'815.9
2018-Jul-20 04:00N 49°25' W 000°16'816.9
2018-Jul-20 03:30N 49°33' W 000°21'816.1
2018-Jul-20 03:00N 49°41' W 000°25'815.8
2018-Jul-20 02:30N 49°48' W 000°30'816.1
2018-Jul-20 02:00N 49°55' W 000°34'2916.0
2018-Jul-20 00:12N 50°23' W 000°48'416.3
2018-Jul-19 23:57N 50°27' W 000°51'716.3
2018-Jul-19 23:30N 50°33' W 000°56'815.3
2018-Jul-19 23:00N 50°41' W 000°58'714.0
2018-Jul-19 22:30N 50°46' W 001°05'3 5.4
2018-Jul-19 22:01N 50°49' W 001°06'0 0.0
2018-Jul-19 21:30N 50°49' W 001°06'0 0.0
2018-Jul-19 21:00N 50°49' W 001°06'0 0.0
2018-Jul-19 20:30N 50°49' W 001°06'2 4.5
2018-Jul-19 20:00N 50°46' W 001°06'815.8
2018-Jul-19 19:30N 50°40' W 000°59'1019.2
2018-Jul-19 19:00N 50°30' W 000°56'1019.1
2018-Jul-19 18:30N 50°21' W 000°53'1019.9
2018-Jul-19 18:00N 50°12' W 000°47'1020.4
2018-Jul-19 17:30N 50°03' W 000°39'1020.1
2018-Jul-19 17:00N 49°54' W 000°33'1019.8
2018-Jul-19 16:31N 49°45' W 000°27'1019.6
2018-Jul-19 16:00N 49°36' W 000°21'1019.1
2018-Jul-19 15:30N 49°26' W 000°17'917.2
2018-Jul-19 15:00N 49°18' W 000°15'1 1.1
2018-Jul-19 14:30N 49°17' W 000°15'0 0.0
2018-Jul-19 13:30N 49°17' W 000°15'0 0.0
2018-Jul-19 13:01N 49°17' W 000°15'2 3.6
2018-Jul-19 12:30N 49°19' W 000°15'918.6
2018-Jul-19 12:00N 49°28' W 000°19'1019.2
2018-Jul-19 11:30N 49°37' W 000°24'1019.7
2018-Jul-19 11:00N 49°46' W 000°30'1020.4
2018-Jul-19 10:30N 49°55' W 000°38'1019.9
2018-Jul-19 10:00N 50°04' W 000°45'1019.6
2018-Jul-19 09:30N 50°13' W 000°51'1019.7
2018-Jul-19 09:00N 50°22' W 000°56'1019.6
2018-Jul-19 08:30N 50°32' W 000°58'1019.2
2018-Jul-19 08:01N 50°41' W 000°58'816.6
2018-Jul-19 07:30N 50°47' W 001°07'1 2.7
2018-Jul-19 07:00N 50°49' W 001°06'0 0.0
2018-Jul-19 06:30N 50°49' W 001°06'0 0.0
2018-Jul-19 06:00N 50°49' W 001°06'0 0.1
2018-Jul-19 05:30N 50°49' W 001°06'510.8
2018-Jul-19 05:01N 50°44' W 001°03'816.1
2018-Jul-19 04:30N 50°36' W 000°57'816.0
2018-Jul-19 04:00N 50°29' W 000°52'714.1
2018-Jul-19 03:30N 50°23' W 000°48'815.3
2018-Jul-19 03:01N 50°15' W 000°45'713.9
2018-Jul-19 02:30N 50°08' W 000°43'510.5
2018-Jul-19 02:00N 50°04' W 000°39'510.4
2018-Jul-19 01:30N 49°59' W 000°37'510.5
2018-Jul-19 01:00N 49°54' W 000°34'510.4
2018-Jul-19 00:30N 49°49' W 000°32'510.3
2018-Jul-19 00:00N 49°44' W 000°31'510.4
2018-Jul-18 23:30N 49°38' W 000°30'5 9.9
2018-Jul-18 23:00N 49°34' W 000°27'510.1
2018-Jul-18 22:30N 49°30' W 000°22'510.4
2018-Jul-18 22:00N 49°26' W 000°18'510.5
2018-Jul-18 21:30N 49°21' W 000°15'4 7.1
2018-Jul-18 21:00N 49°17' W 000°15'0 0.0
2018-Jul-18 20:30N 49°17' W 000°15'0 0.0
2018-Jul-18 20:00N 49°17' W 000°15'0 0.0
2018-Jul-18 19:30N 49°17' W 000°15'0 0.0
2018-Jul-18 19:00N 49°17' W 000°15'0 0.0
2018-Jul-18 18:30N 49°17' W 000°15'0 0.0
2018-Jul-18 18:00N 49°17' W 000°15'0 0.0
2018-Jul-18 17:30N 49°17' W 000°15'0 0.0
2018-Jul-18 17:00N 49°17' W 000°15'0 0.0
2018-Jul-18 16:30N 49°17' W 000°15'0 0.0
2018-Jul-18 16:00N 49°17' W 000°15'0 0.0
2018-Jul-18 15:30N 49°17' W 000°15'0 0.0
2018-Jul-18 15:00N 49°17' W 000°15'0 0.0
2018-Jul-18 14:30N 49°17' W 000°15'611.4
2018-Jul-18 14:00N 49°23' W 000°15'1 2.8
2018-Jul-18 13:30N 49°24' W 000°14'1 1.4
2018-Jul-18 13:00N 49°25' W 000°14'510.8
2018-Jul-18 12:30N 49°29' W 000°19'510.6
2018-Jul-18 12:00N 49°34' W 000°22'611.0
2018-Jul-18 11:30N 49°39' W 000°24'1515.4
2018-Jul-18 10:30N 49°53' W 000°35'918.7
2018-Jul-18 10:00N 50°02' W 000°41'1020.1
2018-Jul-18 09:30N 50°11' W 000°47'1019.9
2018-Jul-18 08:59N 50°21' W 000°51'1219.5
2018-Jul-18 08:23N 50°32' W 000°58'718.6
2018-Jul-18 08:00N 50°39' W 000°59'815.9
2018-Jul-18 07:30N 50°46' W 001°05'3 6.3
2018-Jul-18 07:00N 50°49' W 001°06'0 0.0
2018-Jul-18 06:31N 50°49' W 001°06'0 0.0
2018-Jul-18 06:00N 50°49' W 001°06'0 0.2
2018-Jul-18 05:31N 50°49' W 001°06'510.3
2018-Jul-18 05:00N 50°44' W 001°03'917.1
2018-Jul-18 04:30N 50°36' W 000°57'816.1
2018-Jul-18 04:00N 50°29' W 000°50'914.9
2018-Jul-18 03:24N 50°22' W 000°43'614.1
2018-Jul-18 03:00N 50°16' W 000°43'1011.6
2018-Jul-18 02:09N 50°07' W 000°38'211.4
2018-Jul-18 02:00N 50°05' W 000°37'611.2
2018-Jul-18 01:30N 49°60' W 000°35'611.0
2018-Jul-18 01:00N 49°54' W 000°32'611.1
2018-Jul-18 00:30N 49°49' W 000°30'611.1
2018-Jul-18 00:00N 49°44' W 000°28'611.1
2018-Jul-17 23:30N 49°38' W 000°26'510.7
2018-Jul-17 23:00N 49°34' W 000°22'510.7
2018-Jul-17 22:30N 49°29' W 000°19'510.2
2018-Jul-17 22:00N 49°24' W 000°15'5 9.7
2018-Jul-17 21:30N 49°19' W 000°14'2 4.3
2018-Jul-17 21:00N 49°17' W 000°15'0 0.0
2018-Jul-17 20:30N 49°17' W 000°15'0 0.0
2018-Jul-17 20:00N 49°17' W 000°15'0 0.1
2018-Jul-17 19:30N 49°17' W 000°15'611.9
2018-Jul-17 19:01N 49°23' W 000°15'918.8
2018-Jul-17 18:31N 49°32' W 000°20'918.9
2018-Jul-17 18:00N 49°41' W 000°25'918.7
2018-Jul-17 17:31N 49°50' W 000°30'918.5
2018-Jul-17 17:00N 49°58' W 000°36'918.5
2018-Jul-17 16:30N 50°07' W 000°42'918.8
2018-Jul-17 16:00N 50°15' W 000°47'1019.7
2018-Jul-17 15:30N 50°25' W 000°51'919.1
2018-Jul-17 15:01N 50°34' W 000°57'918.3
2018-Jul-17 14:31N 50°42' W 001°01'713.9
2018-Jul-17 14:01N 50°48' W 001°07'1 1.5
2018-Jul-17 13:30N 50°49' W 001°06'0 0.0
2018-Jul-17 13:00N 50°49' W 001°06'0 0.0
2018-Jul-17 12:30N 50°49' W 001°06'1 1.4
2018-Jul-17 12:01N 50°48' W 001°07'714.1
2018-Jul-17 11:30N 50°42' W 001°01'918.9
2018-Jul-17 11:01N 50°33' W 000°56'1519.0
2018-Jul-17 10:13N 50°19' W 000°50'419.1
2018-Jul-17 10:00N 50°15' W 000°48'919.0
2018-Jul-17 09:30N 50°06' W 000°44'919.1
2018-Jul-17 09:01N 49°57' W 000°40'1019.1
2018-Jul-17 08:31N 49°48' W 000°36'1019.2
2018-Jul-17 08:00N 49°39' W 000°30'1019.5
2018-Jul-17 07:30N 49°30' W 000°23'1019.4
2018-Jul-17 07:00N 49°22' W 000°15'4 8.9
2018-Jul-17 06:30N 49°17' W 000°15'0 0.0
2018-Jul-17 06:00N 49°17' W 000°15'0 0.0
2018-Jul-17 05:30N 49°17' W 000°15'0 0.0
2018-Jul-17 05:00N 49°17' W 000°15'0 0.3
2018-Jul-17 04:31N 49°17' W 000°15'713.7
2018-Jul-17 04:00N 49°24' W 000°14'714.2
2018-Jul-17 03:30N 49°31' W 000°19'714.4
2018-Jul-17 03:00N 49°37' W 000°24'714.8
2018-Jul-17 02:30N 49°44' W 000°28'815.4
2018-Jul-17 02:00N 49°51' W 000°31'815.9
2018-Jul-17 01:30N 49°59' W 000°35'816.2
2018-Jul-17 01:00N 50°06' W 000°39'816.2
2018-Jul-17 00:30N 50°14' W 000°44'1915.5
2018-Jul-16 23:17N 50°32' W 000°54'415.8
2018-Jul-16 23:00N 50°36' W 000°57'815.1
2018-Jul-16 22:30N 50°43' W 001°02'612.8
2018-Jul-16 22:00N 50°48' W 001°07'1 1.8
2018-Jul-16 21:30N 50°49' W 001°06'0 0.0
2018-Jul-16 21:00N 50°49' W 001°06'0 0.0
2018-Jul-16 20:30N 50°49' W 001°06'2 3.4
2018-Jul-16 20:00N 50°47' W 001°06'713.1
2018-Jul-16 19:31N 50°42' W 000°59'918.7
2018-Jul-16 19:01N 50°33' W 000°57'1019.3
2018-Jul-16 18:31N 50°24' W 000°54'917.8
2018-Jul-16 18:00N 50°15' W 000°49'918.7
2018-Jul-16 17:30N 50°07' W 000°44'1019.3
2018-Jul-16 17:00N 49°58' W 000°37'1019.3
2018-Jul-16 16:31N 49°49' W 000°31'918.4
2018-Jul-16 16:00N 49°40' W 000°28'1019.1
2018-Jul-16 15:31N 49°31' W 000°23'918.8
2018-Jul-16 15:01N 49°23' W 000°16'611.5
2018-Jul-16 14:30N 49°17' W 000°15'0 0.0
2018-Jul-16 14:00N 49°17' W 000°15'0 0.0
2018-Jul-16 13:30N 49°17' W 000°15'0 0.0
2018-Jul-16 13:01N 49°17' W 000°15'4 7.2
2018-Jul-16 12:30N 49°21' W 000°14'918.2
2018-Jul-16 12:00N 49°30' W 000°18'917.8
2018-Jul-16 11:30N 49°38' W 000°24'918.0
2018-Jul-16 11:00N 49°46' W 000°31'918.7
2018-Jul-16 10:31N 49°54' W 000°37'1019.6
2018-Jul-16 10:00N 50°03' W 000°45'1019.7
2018-Jul-16 09:30N 50°12' W 000°49'1019.4
2018-Jul-16 09:00N 50°21' W 000°54'1019.6
2018-Jul-16 08:30N 50°31' W 000°57'919.1
2018-Jul-16 08:00N 50°40' W 000°58'816.3
2018-Jul-16 07:30N 50°47' W 001°06'2 4.0
2018-Jul-16 07:00N 50°49' W 001°06'0 0.0
2018-Jul-16 06:30N 50°49' W 001°06'0 0.0
2018-Jul-16 06:00N 50°49' W 001°06'1 1.4
2018-Jul-16 05:31N 50°48' W 001°07'613.0
2018-Jul-16 05:01N 50°43' W 001°01'815.3
2018-Jul-16 04:30N 50°36' W 000°57'917.1
2018-Jul-16 04:01N 50°28' W 000°52'5 9.9
2018-Jul-16 03:30N 50°23' W 000°50'510.9
2018-Jul-16 03:01N 50°18' W 000°49'611.9
2018-Jul-16 02:31N 50°12' W 000°46'612.1
2018-Jul-16 02:00N 50°07' W 000°41'611.6
2018-Jul-16 01:31N 50°02' W 000°37'611.3
2018-Jul-16 01:01N 49°56' W 000°35'510.9
2018-Jul-16 00:30N 49°51' W 000°32'510.7
2018-Jul-16 00:01N 49°46' W 000°29'510.5
2018-Jul-15 23:30N 49°41' W 000°26'510.8
2018-Jul-15 23:01N 49°36' W 000°23'510.5
2018-Jul-15 22:30N 49°32' W 000°19'510.5
2018-Jul-15 22:00N 49°26' W 000°18'510.4
2018-Jul-15 21:30N 49°22' W 000°15'4 8.4
2018-Jul-15 21:00N 49°17' W 000°15'0 0.0
2018-Jul-15 20:31N 49°17' W 000°15'0 0.0
2018-Jul-15 20:01N 49°17' W 000°15'0 0.0
2018-Jul-15 19:31N 49°17' W 000°15'3 5.9
2018-Jul-15 19:00N 49°20' W 000°14'918.3
2018-Jul-15 18:30N 49°29' W 000°17'919.0
2018-Jul-15 18:00N 49°38' W 000°22'1019.0
2018-Jul-15 17:30N 49°47' W 000°27'918.9
2018-Jul-15 17:00N 49°56' W 000°32'918.5
2018-Jul-15 16:30N 50°04' W 000°38'1018.6
2018-Jul-15 15:59N 50°13' W 000°45'919.2
2018-Jul-15 15:30N 50°22' W 000°50'1119.4
2018-Jul-15 14:56N 50°32' W 000°55'819.2
2018-Jul-15 14:31N 50°40' W 000°59'815.8
2018-Jul-15 14:01N 50°47' W 001°06'2 4.1
2018-Jul-15 13:30N 50°49' W 001°06'0 0.0
2018-Jul-15 13:00N 50°49' W 001°06'0 0.0
2018-Jul-15 12:31N 50°49' W 001°06'2 4.3
2018-Jul-15 12:00N 50°47' W 001°06'917.7
2018-Jul-15 11:31N 50°39' W 000°58'1019.6
2018-Jul-15 11:00N 50°30' W 000°54'1019.1
2018-Jul-15 10:30N 50°20' W 000°50'1018.8
2018-Jul-15 10:00N 50°12' W 000°44'918.4
2018-Jul-15 09:30N 50°03' W 000°39'918.2
2018-Jul-15 09:00N 49°55' W 000°35'917.9
2018-Jul-15 08:30N 49°46' W 000°30'918.0
2018-Jul-15 08:00N 49°38' W 000°25'918.2
2018-Jul-15 07:30N 49°29' W 000°20'917.4
2018-Jul-15 07:00N 49°21' W 000°15'4 7.7
2018-Jul-15 06:30N 49°17' W 000°15'0 0.0
2018-Jul-15 06:00N 49°17' W 000°15'0 0.0
2018-Jul-15 05:30N 49°17' W 000°15'0 0.0
2018-Jul-15 05:00N 49°17' W 000°15'0 0.1
2018-Jul-15 04:30N 49°17' W 000°15'713.4
2018-Jul-15 04:00N 49°24' W 000°14'714.2
2018-Jul-15 03:30N 49°31' W 000°17'714.4
2018-Jul-15 03:01N 49°37' W 000°22'714.2
2018-Jul-15 02:31N 49°44' W 000°26'714.3
2018-Jul-15 02:01N 49°50' W 000°30'714.4
2018-Jul-15 01:31N 49°57' W 000°34'714.3
2018-Jul-15 01:01N 50°04' W 000°38'714.7
2018-Jul-15 00:30N 50°11' W 000°41'915.7
2018-Jul-14 23:58N 50°19' W 000°46'816.9
2018-Jul-14 23:30N 50°26' W 000°50'817.0
2018-Jul-14 23:01N 50°34' W 000°56'815.8
2018-Jul-14 22:31N 50°41' W 001°00'714.3
2018-Jul-14 22:00N 50°47' W 001°06'2 3.1
2018-Jul-14 21:30N 50°49' W 001°06'0 0.0
2018-Jul-14 21:00N 50°49' W 001°06'0 0.0
2018-Jul-14 20:30N 50°49' W 001°06'1 2.2
2018-Jul-14 20:00N 50°48' W 001°07'713.6
2018-Jul-14 19:31N 50°43' W 000°59'918.1
2018-Jul-14 19:01N 50°34' W 000°56'918.8
2018-Jul-14 18:30N 50°25' W 000°52'918.1
2018-Jul-14 18:00N 50°16' W 000°48'918.4
2018-Jul-14 17:31N 50°07' W 000°44'918.8
2018-Jul-14 17:01N 49°59' W 000°40'1019.2
2018-Jul-14 16:30N 49°50' W 000°34'1019.1
2018-Jul-14 16:00N 49°41' W 000°28'1019.1
2018-Jul-14 15:30N 49°32' W 000°22'1019.1
2018-Jul-14 15:01N 49°23' W 000°16'612.2
2018-Jul-14 14:30N 49°17' W 000°15'0 0.0
2018-Jul-14 13:30N 49°17' W 000°15'0 0.1
2018-Jul-14 13:00N 49°17' W 000°15'612.6
2018-Jul-14 12:31N 49°24' W 000°15'1019.7
2018-Jul-14 12:00N 49°33' W 000°20'1019.9
2018-Jul-14 11:31N 49°42' W 000°25'1020.3
2018-Jul-14 11:01N 49°52' W 000°31'1020.6
2018-Jul-14 10:31N 50°01' W 000°38'1020.7
2018-Jul-14 10:00N 50°10' W 000°45'1019.2
2018-Jul-14 09:31N 50°19' W 000°48'1019.8
2018-Jul-14 09:01N 50°29' W 000°53'1019.6
2018-Jul-14 08:30N 50°38' W 000°58'917.9
2018-Jul-14 08:01N 50°46' W 001°05'3 5.8
2018-Jul-14 07:30N 50°49' W 001°06'0 0.0
2018-Jul-14 07:00N 50°49' W 001°06'0 0.0
2018-Jul-14 06:30N 50°49' W 001°06'0 0.0
2018-Jul-14 06:00N 50°49' W 001°06'0 0.2
2018-Jul-14 05:31N 50°49' W 001°06'4 8.9
2018-Jul-14 05:00N 50°44' W 001°04'714.4
2018-Jul-14 04:30N 50°38' W 000°58'714.7
2018-Jul-14 04:00N 50°31' W 000°55'815.3
2018-Jul-14 03:30N 50°24' W 000°52'715.0
2018-Jul-14 03:00N 50°17' W 000°49'815.3
2018-Jul-14 02:30N 50°09' W 000°44'713.5
2018-Jul-14 02:00N 50°04' W 000°39'611.8
2018-Jul-14 01:31N 49°58' W 000°35'611.5
2018-Jul-14 01:00N 49°53' W 000°31'611.3
2018-Jul-14 00:31N 49°48' W 000°28'510.8
2018-Jul-14 00:01N 49°43' W 000°24'510.8
2018-Jul-13 23:30N 49°38' W 000°21'510.5
2018-Jul-13 23:01N 49°33' W 000°19'510.0
2018-Jul-13 22:30N 49°28' W 000°18'5 9.9
2018-Jul-13 22:01N 49°23' W 000°15'510.4
2018-Jul-13 21:30N 49°18' W 000°15'1 1.7
2018-Jul-13 21:01N 49°17' W 000°15'0 0.0
2018-Jul-13 20:30N 49°17' W 000°15'0 0.0
2018-Jul-13 20:01N 49°17' W 000°15'0 0.0
2018-Jul-13 19:31N 49°17' W 000°15'4 7.2
2018-Jul-13 19:00N 49°21' W 000°14'918.7
2018-Jul-13 18:30N 49°30' W 000°18'918.9
2018-Jul-13 18:01N 49°39' W 000°22'918.4
2018-Jul-13 17:31N 49°47' W 000°28'918.4
2018-Jul-13 17:00N 49°56' W 000°33'918.3
2018-Jul-13 16:30N 50°04' W 000°40'918.5
2018-Jul-13 16:00N 50°13' W 000°45'918.3
2018-Jul-13 15:30N 50°21' W 000°50'918.9
2018-Jul-13 15:01N 50°30' W 000°54'1818.2
2018-Jul-13 14:01N 50°47' W 001°06'2 3.6
2018-Jul-13 13:30N 50°49' W 001°06'0 0.0
2018-Jul-13 13:00N 50°49' W 001°06'0 0.0
2018-Jul-13 12:30N 50°49' W 001°06'1 2.6
2018-Jul-13 12:00N 50°48' W 001°07'714.1
2018-Jul-13 11:31N 50°42' W 001°01'1019.6
2018-Jul-13 11:00N 50°32' W 000°56'1019.6
2018-Jul-13 10:30N 50°23' W 000°50'1019.7
2018-Jul-13 10:00N 50°14' W 000°45'919.3
2018-Jul-13 09:30N 50°04' W 000°41'1019.1
2018-Jul-13 09:00N 49°55' W 000°37'918.8
2018-Jul-13 08:30N 49°46' W 000°32'918.6
2018-Jul-13 08:01N 49°38' W 000°25'918.9
2018-Jul-13 07:30N 49°29' W 000°20'918.2
2018-Jul-13 07:01N 49°21' W 000°15'4 7.3
2018-Jul-13 06:30N 49°17' W 000°15'0 0.0
2018-Jul-13 06:00N 49°17' W 000°15'0 0.0
2018-Jul-13 05:30N 49°17' W 000°15'0 0.0
2018-Jul-13 05:00N 49°17' W 000°15'0 0.6
2018-Jul-13 04:30N 49°18' W 000°15'714.0
2018-Jul-13 04:00N 49°25' W 000°15'816.8
2018-Jul-13 03:30N 49°32' W 000°22'917.1
2018-Jul-13 03:01N 49°40' W 000°24'917.2
2018-Jul-13 02:31N 49°48' W 000°28'815.8
2018-Jul-13 02:01N 49°56' W 000°33'815.1
2018-Jul-13 01:31N 50°03' W 000°37'1114.5
2018-Jul-13 00:44N 50°13' W 000°44'614.8
2018-Jul-13 00:21N 50°19' W 000°47'915.3
2018-Jul-12 23:45N 50°27' W 000°52'414.7
2018-Jul-12 23:31N 50°30' W 000°54'815.0
2018-Jul-12 23:00N 50°37' W 000°59'714.4
2018-Jul-12 22:31N 50°44' W 001°03'510.3
2018-Jul-12 22:01N 50°49' W 001°06'0 0.7
2018-Jul-12 21:30N 50°49' W 001°06'0 0.0
2018-Jul-12 21:00N 50°49' W 001°06'0 0.0
2018-Jul-12 20:30N 50°49' W 001°06'2 3.2
2018-Jul-12 20:00N 50°47' W 001°06'815.7
2018-Jul-12 19:31N 50°41' W 000°59'918.8
2018-Jul-12 19:01N 50°32' W 000°53'1118.9
2018-Jul-12 18:24N 50°21' W 000°48'1319.0
2018-Jul-12 17:44N 50°09' W 000°41'419.2
2018-Jul-12 17:30N 50°05' W 000°39'1019.1
2018-Jul-12 17:00N 49°56' W 000°34'919.1
2018-Jul-12 16:30N 49°47' W 000°30'1019.4
2018-Jul-12 16:01N 49°38' W 000°25'1019.6
2018-Jul-12 15:30N 49°29' W 000°20'918.5
2018-Jul-12 15:00N 49°20' W 000°14'3 5.4
2018-Jul-12 14:31N 49°17' W 000°15'0 0.0
2018-Jul-12 14:01N 49°17' W 000°15'0 0.0
2018-Jul-12 13:31N 49°17' W 000°15'0 0.0
2018-Jul-12 13:01N 49°17' W 000°15'2 3.8
2018-Jul-12 12:31N 49°19' W 000°15'918.5
2018-Jul-12 12:00N 49°28' W 000°17'1019.4
2018-Jul-12 11:31N 49°38' W 000°22'1019.4
2018-Jul-12 11:00N 49°47' W 000°26'1019.6
2018-Jul-12 10:31N 49°56' W 000°29'1019.4
2018-Jul-12 10:01N 50°06' W 000°33'1019.3
2018-Jul-12 09:30N 50°15' W 000°40'1019.2
2018-Jul-12 09:00N 50°23' W 000°47'1019.4
2018-Jul-12 08:31N 50°32' W 000°54'918.8
2018-Jul-12 08:01N 50°40' W 000°60'816.2
2018-Jul-12 07:30N 50°47' W 001°06'2 3.2
2018-Jul-12 07:00N 50°49' W 001°06'0 0.0
2018-Jul-12 06:31N 50°49' W 001°06'0 0.0
2018-Jul-12 06:00N 50°49' W 001°06'1 1.4
2018-Jul-12 05:30N 50°48' W 001°07'612.1
2018-Jul-12 05:01N 50°43' W 001°02'817.0
2018-Jul-12 04:31N 50°36' W 000°56'816.2
2018-Jul-12 04:01N 50°29' W 000°50'1010.2
2018-Jul-12 03:01N 50°19' W 000°44'  
Track history (hours):
 
Tides and Currents Weather Stations Pressure Air Temp Water Temp Dewpoint Dewpoint Depression Visibility Wind Speed Wind Dir Waves Ship Positions

Normandie

Operator: Brittany Ferries

Last reported at 2018-Jul-22 03:00 UTC. Time now 2018-Jul-22 03:20 UTC.
Position N 49°40' W 000°25'.

Length 161 m; beam 27 m.

Type: Passenger vessel. MMSI: 227273000.

Date/timePositionNaut miles runAvg speedWind from/ knotsBaromVisibWave heightAir tempDewpointWater temp
2018-Jul-22 03:00N 49°40' W 000°25'611.3
2018-Jul-22 02:30N 49°45' W 000°28'815.2
2018-Jul-22 02:00N 49°52' W 000°33'815.9
2018-Jul-22 01:31N 49°60' W 000°38'815.7
2018-Jul-22 01:01N 50°07' W 000°42'815.5
2018-Jul-22 00:31N 50°14' W 000°45'815.5
2018-Jul-22 00:01N 50°22' W 000°48'815.3
2018-Jul-21 23:30N 50°29' W 000°54'815.4
2018-Jul-21 23:00N 50°36' W 000°57'815.4
2018-Jul-21 22:30N 50°43' W 001°02'612.2
2018-Jul-21 22:00N 50°49' W 001°07'1 1.1
2018-Jul-21 21:30N 50°49' W 001°06'0 0.0
2018-Jul-21 21:00N 50°49' W 001°06'0 0.0
2018-Jul-21 20:30N 50°49' W 001°06'2 3.3
2018-Jul-21 20:00N 50°47' W 001°06'816.1
2018-Jul-21 19:30N 50°40' W 000°60'1019.8
2018-Jul-21 19:00N 50°31' W 000°54'1019.2
2018-Jul-21 18:30N 50°22' W 000°49'1119.6
2018-Jul-21 17:57N 50°12' W 000°44'919.5
2018-Jul-21 17:30N 50°04' W 000°38'1019.3
2018-Jul-21 17:00N 49°55' W 000°32'1019.3
2018-Jul-21 16:30N 49°46' W 000°28'1019.2
2018-Jul-21 16:00N 49°37' W 000°23'1019.2
2018-Jul-21 15:30N 49°27' W 000°18'918.1
2018-Jul-21 15:01N 49°19' W 000°15'2 3.0
2018-Jul-21 14:30N 49°17' W 000°15'0 0.0
2018-Jul-21 13:30N 49°17' W 000°15'0 0.1
2018-Jul-21 13:00N 49°17' W 000°15'611.7
2018-Jul-21 12:30N 49°23' W 000°15'1019.8
2018-Jul-21 12:00N 49°32' W 000°20'1019.9
2018-Jul-21 11:31N 49°41' W 000°26'1019.7
2018-Jul-21 11:01N 49°50' W 000°33'1019.4
2018-Jul-21 10:30N 49°59' W 000°39'1019.2
2018-Jul-21 10:00N 50°08' W 000°44'2119.3
2018-Jul-21 08:55N 50°29' W 000°54'819.4
2018-Jul-21 08:30N 50°36' W 000°58'918.1
2018-Jul-21 08:01N 50°44' W 001°04'5 9.4
2018-Jul-21 07:30N 50°49' W 001°06'0 0.0
2018-Jul-21 07:00N 50°49' W 001°06'0 0.0
2018-Jul-21 06:30N 50°49' W 001°06'0 0.0
2018-Jul-21 06:00N 50°49' W 001°06'0 0.0
2018-Jul-21 05:30N 50°49' W 001°06'3 5.1
2018-Jul-21 05:01N 50°46' W 001°05'917.1
2018-Jul-21 04:31N 50°39' W 000°58'816.1
2018-Jul-21 04:00N 50°31' W 000°54'2815.1
2018-Jul-21 02:08N 50°05' W 000°38'2 9.7
2018-Jul-21 01:55N 50°03' W 000°36'410.1
2018-Jul-21 01:30N 49°59' W 000°35'510.3
2018-Jul-21 01:00N 49°54' W 000°33'510.2
2018-Jul-21 00:31N 49°49' W 000°29'510.6
2018-Jul-21 00:00N 49°44' W 000°27'510.9
2018-Jul-20 23:30N 49°39' W 000°24'511.0
2018-Jul-20 23:00N 49°34' W 000°22'611.1
2018-Jul-20 22:30N 49°29' W 000°19'611.1
2018-Jul-20 22:00N 49°24' W 000°16'611.2
2018-Jul-20 21:31N 49°18' W 000°15'1 1.3
2018-Jul-20 21:01N 49°17' W 000°15'0 0.0
2018-Jul-20 20:30N 49°17' W 000°15'0 0.0
2018-Jul-20 20:00N 49°17' W 000°15'0 0.0
2018-Jul-20 19:31N 49°17' W 000°15'3 6.9
2018-Jul-20 19:00N 49°21' W 000°14'918.7
2018-Jul-20 18:30N 49°30' W 000°18'1019.2
2018-Jul-20 18:00N 49°39' W 000°24'1019.1
2018-Jul-20 17:30N 49°47' W 000°29'1019.1
2018-Jul-20 17:00N 49°57' W 000°34'1019.3
2018-Jul-20 16:30N 50°06' W 000°38'2419.8
2018-Jul-20 15:17N 50°29' W 000°50'619.7
2018-Jul-20 14:59N 50°34' W 000°53'918.3
2018-Jul-20 14:30N 50°42' W 001°01'714.6
2018-Jul-20 14:00N 50°48' W 001°07'1 2.2
2018-Jul-20 13:30N 50°49' W 001°06'0 0.0
2018-Jul-20 13:00N 50°49' W 001°06'0 0.0
2018-Jul-20 12:30N 50°49' W 001°06'1 2.0
2018-Jul-20 12:00N 50°48' W 001°07'713.4
2018-Jul-20 11:30N 50°43' W 000°60'917.6
2018-Jul-20 11:00N 50°35' W 000°55'918.3
2018-Jul-20 10:30N 50°26' W 000°50'918.6
2018-Jul-20 10:00N 50°17' W 000°45'918.9
2018-Jul-20 09:30N 50°09' W 000°39'918.9
2018-Jul-20 09:00N 49°59' W 000°36'1019.7
2018-Jul-20 08:30N 49°50' W 000°31'1020.6
2018-Jul-20 08:00N 49°40' W 000°26'1020.4
2018-Jul-20 07:30N 49°31' W 000°20'1020.3
2018-Jul-20 07:00N 49°21' W 000°15'4 7.9
2018-Jul-20 06:31N 49°17' W 000°15'0 0.0
2018-Jul-20 06:01N 49°17' W 000°15'0 0.0
2018-Jul-20 05:30N 49°17' W 000°15'0 0.0
2018-Jul-20 05:01N 49°17' W 000°15'0 0.1
2018-Jul-20 04:30N 49°17' W 000°15'815.9
2018-Jul-20 04:00N 49°25' W 000°16'816.9
2018-Jul-20 03:30N 49°33' W 000°21'816.1
2018-Jul-20 03:00N 49°41' W 000°25'815.8
2018-Jul-20 02:30N 49°48' W 000°30'816.1
2018-Jul-20 02:00N 49°55' W 000°34'2916.0
2018-Jul-20 00:12N 50°23' W 000°48'416.3
2018-Jul-19 23:57N 50°27' W 000°51'716.3
2018-Jul-19 23:30N 50°33' W 000°56'815.3
2018-Jul-19 23:00N 50°41' W 000°58'714.0
2018-Jul-19 22:30N 50°46' W 001°05'3 5.4
2018-Jul-19 22:01N 50°49' W 001°06'0 0.0
2018-Jul-19 21:30N 50°49' W 001°06'0 0.0
2018-Jul-19 21:00N 50°49' W 001°06'0 0.0
2018-Jul-19 20:30N 50°49' W 001°06'2 4.5
2018-Jul-19 20:00N 50°46' W 001°06'815.8
2018-Jul-19 19:30N 50°40' W 000°59'1019.2
2018-Jul-19 19:00N 50°30' W 000°56'1019.1
2018-Jul-19 18:30N 50°21' W 000°53'1019.9
2018-Jul-19 18:00N 50°12' W 000°47'1020.4
2018-Jul-19 17:30N 50°03' W 000°39'1020.1
2018-Jul-19 17:00N 49°54' W 000°33'1019.8
2018-Jul-19 16:31N 49°45' W 000°27'1019.6
2018-Jul-19 16:00N 49°36' W 000°21'1019.1
2018-Jul-19 15:30N 49°26' W 000°17'917.2
2018-Jul-19 15:00N 49°18' W 000°15'1 1.1
2018-Jul-19 14:30N 49°17' W 000°15'0 0.0
2018-Jul-19 13:30N 49°17' W 000°15'0 0.0
2018-Jul-19 13:01N 49°17' W 000°15'2 3.6
2018-Jul-19 12:30N 49°19' W 000°15'918.6
2018-Jul-19 12:00N 49°28' W 000°19'1019.2
2018-Jul-19 11:30N 49°37' W 000°24'1019.7
2018-Jul-19 11:00N 49°46' W 000°30'1020.4
2018-Jul-19 10:30N 49°55' W 000°38'1019.9
2018-Jul-19 10:00N 50°04' W 000°45'1019.6
2018-Jul-19 09:30N 50°13' W 000°51'1019.7
2018-Jul-19 09:00N 50°22' W 000°56'1019.6
2018-Jul-19 08:30N 50°32' W 000°58'1019.2
2018-Jul-19 08:01N 50°41' W 000°58'816.6
2018-Jul-19 07:30N 50°47' W 001°07'1 2.7
2018-Jul-19 07:00N 50°49' W 001°06'0 0.0
2018-Jul-19 06:30N 50°49' W 001°06'0 0.0
2018-Jul-19 06:00N 50°49' W 001°06'0 0.1
2018-Jul-19 05:30N 50°49' W 001°06'510.8
2018-Jul-19 05:01N 50°44' W 001°03'816.1
2018-Jul-19 04:30N 50°36' W 000°57'816.0
2018-Jul-19 04:00N 50°29' W 000°52'714.1
2018-Jul-19 03:30N 50°23' W 000°48'815.3
2018-Jul-19 03:01N 50°15' W 000°45'713.9
2018-Jul-19 02:30N 50°08' W 000°43'510.5
2018-Jul-19 02:00N 50°04' W 000°39'510.4
2018-Jul-19 01:30N 49°59' W 000°37'510.5
2018-Jul-19 01:00N 49°54' W 000°34'510.4
2018-Jul-19 00:30N 49°49' W 000°32'510.3
2018-Jul-19 00:00N 49°44' W 000°31'510.4
2018-Jul-18 23:30N 49°38' W 000°30'5 9.9
2018-Jul-18 23:00N 49°34' W 000°27'510.1
2018-Jul-18 22:30N 49°30' W 000°22'510.4
2018-Jul-18 22:00N 49°26' W 000°18'510.5
2018-Jul-18 21:30N 49°21' W 000°15'4 7.1
2018-Jul-18 21:00N 49°17' W 000°15'0 0.0
2018-Jul-18 20:30N 49°17' W 000°15'0 0.0
2018-Jul-18 20:00N 49°17' W 000°15'0 0.0
2018-Jul-18 19:30N 49°17' W 000°15'0 0.0
2018-Jul-18 19:00N 49°17' W 000°15'0 0.0
2018-Jul-18 18:30N 49°17' W 000°15'0 0.0
2018-Jul-18 18:00N 49°17' W 000°15'0 0.0
2018-Jul-18 17:30N 49°17' W 000°15'0 0.0
2018-Jul-18 17:00N 49°17' W 000°15'0 0.0
2018-Jul-18 16:30N 49°17' W 000°15'0 0.0
2018-Jul-18 16:00N 49°17' W 000°15'0 0.0
2018-Jul-18 15:30N 49°17' W 000°15'0 0.0
2018-Jul-18 15:00N 49°17' W 000°15'0 0.0
2018-Jul-18 14:30N 49°17' W 000°15'611.4
2018-Jul-18 14:00N 49°23' W 000°15'1 2.8
2018-Jul-18 13:30N 49°24' W 000°14'1 1.4
2018-Jul-18 13:00N 49°25' W 000°14'510.8
2018-Jul-18 12:30N 49°29' W 000°19'510.6
2018-Jul-18 12:00N 49°34' W 000°22'611.0
2018-Jul-18 11:30N 49°39' W 000°24'1515.4
2018-Jul-18 10:30N 49°53' W 000°35'918.7
2018-Jul-18 10:00N 50°02' W 000°41'1020.1
2018-Jul-18 09:30N 50°11' W 000°47'1019.9
2018-Jul-18 08:59N 50°21' W 000°51'1219.5
2018-Jul-18 08:23N 50°32' W 000°58'718.6
2018-Jul-18 08:00N 50°39' W 000°59'815.9
2018-Jul-18 07:30N 50°46' W 001°05'3 6.3
2018-Jul-18 07:00N 50°49' W 001°06'0 0.0
2018-Jul-18 06:31N 50°49' W 001°06'0 0.0
2018-Jul-18 06:00N 50°49' W 001°06'0 0.2
2018-Jul-18 05:31N 50°49' W 001°06'510.3
2018-Jul-18 05:00N 50°44' W 001°03'917.1
2018-Jul-18 04:30N 50°36' W 000°57'816.1
2018-Jul-18 04:00N 50°29' W 000°50'914.9
2018-Jul-18 03:24N 50°22' W 000°43'614.1
2018-Jul-18 03:00N 50°16' W 000°43'1011.6
2018-Jul-18 02:09N 50°07' W 000°38'211.4
2018-Jul-18 02:00N 50°05' W 000°37'611.2
2018-Jul-18 01:30N 49°60' W 000°35'611.0
2018-Jul-18 01:00N 49°54' W 000°32'611.1
2018-Jul-18 00:30N 49°49' W 000°30'611.1
2018-Jul-18 00:00N 49°44' W 000°28'611.1
2018-Jul-17 23:30N 49°38' W 000°26'510.7
2018-Jul-17 23:00N 49°34' W 000°22'510.7
2018-Jul-17 22:30N 49°29' W 000°19'510.2
2018-Jul-17 22:00N 49°24' W 000°15'5 9.7
2018-Jul-17 21:30N 49°19' W 000°14'2 4.3
2018-Jul-17 21:00N 49°17' W 000°15'0 0.0
2018-Jul-17 20:30N 49°17' W 000°15'0 0.0
2018-Jul-17 20:00N 49°17' W 000°15'0 0.1
2018-Jul-17 19:30N 49°17' W 000°15'611.9
2018-Jul-17 19:01N 49°23' W 000°15'918.8
2018-Jul-17 18:31N 49°32' W 000°20'918.9
2018-Jul-17 18:00N 49°41' W 000°25'918.7
2018-Jul-17 17:31N 49°50' W 000°30'918.5
2018-Jul-17 17:00N 49°58' W 000°36'918.5
2018-Jul-17 16:30N 50°07' W 000°42'918.8
2018-Jul-17 16:00N 50°15' W 000°47'1019.7
2018-Jul-17 15:30N 50°25' W 000°51'919.1
2018-Jul-17 15:01N 50°34' W 000°57'918.3
2018-Jul-17 14:31N 50°42' W 001°01'713.9
2018-Jul-17 14:01N 50°48' W 001°07'1 1.5
2018-Jul-17 13:30N 50°49' W 001°06'0 0.0
2018-Jul-17 13:00N 50°49' W 001°06'0 0.0
2018-Jul-17 12:30N 50°49' W 001°06'1 1.4
2018-Jul-17 12:01N 50°48' W 001°07'714.1
2018-Jul-17 11:30N 50°42' W 001°01'918.9
2018-Jul-17 11:01N 50°33' W 000°56'1519.0
2018-Jul-17 10:13N 50°19' W 000°50'419.1
2018-Jul-17 10:00N 50°15' W 000°48'919.0
2018-Jul-17 09:30N 50°06' W 000°44'919.1
2018-Jul-17 09:01N 49°57' W 000°40'1019.1
2018-Jul-17 08:31N 49°48' W 000°36'1019.2
2018-Jul-17 08:00N 49°39' W 000°30'1019.5
2018-Jul-17 07:30N 49°30' W 000°23'1019.4
2018-Jul-17 07:00N 49°22' W 000°15'4 8.9
2018-Jul-17 06:30N 49°17' W 000°15'0 0.0
2018-Jul-17 06:00N 49°17' W 000°15'0 0.0
2018-Jul-17 05:30N 49°17' W 000°15'0 0.0
2018-Jul-17 05:00N 49°17' W 000°15'0 0.3
2018-Jul-17 04:31N 49°17' W 000°15'713.7
2018-Jul-17 04:00N 49°24' W 000°14'714.2
2018-Jul-17 03:30N 49°31' W 000°19'714.4
2018-Jul-17 03:00N 49°37' W 000°24'714.8
2018-Jul-17 02:30N 49°44' W 000°28'815.4
2018-Jul-17 02:00N 49°51' W 000°31'815.9
2018-Jul-17 01:30N 49°59' W 000°35'816.2
2018-Jul-17 01:00N 50°06' W 000°39'816.2
2018-Jul-17 00:30N 50°14' W 000°44'1915.5
2018-Jul-16 23:17N 50°32' W 000°54'415.8
2018-Jul-16 23:00N 50°36' W 000°57'815.1
2018-Jul-16 22:30N 50°43' W 001°02'612.8
2018-Jul-16 22:00N 50°48' W 001°07'1 1.8
2018-Jul-16 21:30N 50°49' W 001°06'0 0.0
2018-Jul-16 21:00N 50°49' W 001°06'0 0.0
2018-Jul-16 20:30N 50°49' W 001°06'2 3.4
2018-Jul-16 20:00N 50°47' W 001°06'713.1
2018-Jul-16 19:31N 50°42' W 000°59'918.7
2018-Jul-16 19:01N 50°33' W 000°57'1019.3
2018-Jul-16 18:31N 50°24' W 000°54'917.8
2018-Jul-16 18:00N 50°15' W 000°49'918.7
2018-Jul-16 17:30N 50°07' W 000°44'1019.3
2018-Jul-16 17:00N 49°58' W 000°37'1019.3
2018-Jul-16 16:31N 49°49' W 000°31'918.4
2018-Jul-16 16:00N 49°40' W 000°28'1019.1
2018-Jul-16 15:31N 49°31' W 000°23'918.8
2018-Jul-16 15:01N 49°23' W 000°16'611.5
2018-Jul-16 14:30N 49°17' W 000°15'0 0.0
2018-Jul-16 14:00N 49°17' W 000°15'0 0.0
2018-Jul-16 13:30N 49°17' W 000°15'0 0.0
2018-Jul-16 13:01N 49°17' W 000°15'4 7.2
2018-Jul-16 12:30N 49°21' W 000°14'918.2
2018-Jul-16 12:00N 49°30' W 000°18'917.8
2018-Jul-16 11:30N 49°38' W 000°24'918.0
2018-Jul-16 11:00N 49°46' W 000°31'918.7
2018-Jul-16 10:31N 49°54' W 000°37'1019.6
2018-Jul-16 10:00N 50°03' W 000°45'1019.7
2018-Jul-16 09:30N 50°12' W 000°49'1019.4
2018-Jul-16 09:00N 50°21' W 000°54'1019.6
2018-Jul-16 08:30N 50°31' W 000°57'919.1
2018-Jul-16 08:00N 50°40' W 000°58'816.3
2018-Jul-16 07:30N 50°47' W 001°06'2 4.0
2018-Jul-16 07:00N 50°49' W 001°06'0 0.0
2018-Jul-16 06:30N 50°49' W 001°06'0 0.0
2018-Jul-16 06:00N 50°49' W 001°06'1 1.4
2018-Jul-16 05:31N 50°48' W 001°07'613.0
2018-Jul-16 05:01N 50°43' W 001°01'815.3
2018-Jul-16 04:30N 50°36' W 000°57'917.1
2018-Jul-16 04:01N 50°28' W 000°52'5 9.9
2018-Jul-16 03:30N 50°23' W 000°50'510.9
2018-Jul-16 03:01N 50°18' W 000°49'611.9
2018-Jul-16 02:31N 50°12' W 000°46'612.1
2018-Jul-16 02:00N 50°07' W 000°41'611.6
2018-Jul-16 01:31N 50°02' W 000°37'611.3
2018-Jul-16 01:01N 49°56' W 000°35'510.9
2018-Jul-16 00:30N 49°51' W 000°32'510.7
2018-Jul-16 00:01N 49°46' W 000°29'510.5
2018-Jul-15 23:30N 49°41' W 000°26'510.8
2018-Jul-15 23:01N 49°36' W 000°23'510.5
2018-Jul-15 22:30N 49°32' W 000°19'510.5
2018-Jul-15 22:00N 49°26' W 000°18'510.4
2018-Jul-15 21:30N 49°22' W 000°15'4 8.4
2018-Jul-15 21:00N 49°17' W 000°15'0 0.0
2018-Jul-15 20:31N 49°17' W 000°15'0 0.0
2018-Jul-15 20:01N 49°17' W 000°15'0 0.0
2018-Jul-15 19:31N 49°17' W 000°15'3 5.9
2018-Jul-15 19:00N 49°20' W 000°14'918.3
2018-Jul-15 18:30N 49°29' W 000°17'919.0
2018-Jul-15 18:00N 49°38' W 000°22'1019.0
2018-Jul-15 17:30N 49°47' W 000°27'918.9
2018-Jul-15 17:00N 49°56' W 000°32'918.5
2018-Jul-15 16:30N 50°04' W 000°38'1018.6
2018-Jul-15 15:59N 50°13' W 000°45'919.2
2018-Jul-15 15:30N 50°22' W 000°50'1119.4
2018-Jul-15 14:56N 50°32' W 000°55'819.2
2018-Jul-15 14:31N 50°40' W 000°59'815.8
2018-Jul-15 14:01N 50°47' W 001°06'2 4.1
2018-Jul-15 13:30N 50°49' W 001°06'0 0.0
2018-Jul-15 13:00N 50°49' W 001°06'0 0.0
2018-Jul-15 12:31N 50°49' W 001°06'2 4.3
2018-Jul-15 12:00N 50°47' W 001°06'917.7
2018-Jul-15 11:31N 50°39' W 000°58'1019.6
2018-Jul-15 11:00N 50°30' W 000°54'1019.1
2018-Jul-15 10:30N 50°20' W 000°50'1018.8
2018-Jul-15 10:00N 50°12' W 000°44'918.4
2018-Jul-15 09:30N 50°03' W 000°39'918.2
2018-Jul-15 09:00N 49°55' W 000°35'917.9
2018-Jul-15 08:30N 49°46' W 000°30'918.0
2018-Jul-15 08:00N 49°38' W 000°25'918.2
2018-Jul-15 07:30N 49°29' W 000°20'917.4
2018-Jul-15 07:00N 49°21' W 000°15'4 7.7
2018-Jul-15 06:30N 49°17' W 000°15'0 0.0
2018-Jul-15 06:00N 49°17' W 000°15'0 0.0
2018-Jul-15 05:30N 49°17' W 000°15'0 0.0
2018-Jul-15 05:00N 49°17' W 000°15'0 0.1
2018-Jul-15 04:30N 49°17' W 000°15'713.4
2018-Jul-15 04:00N 49°24' W 000°14'714.2
2018-Jul-15 03:30N 49°31' W 000°17'714.4
2018-Jul-15 03:01N 49°37' W 000°22'714.2
2018-Jul-15 02:31N 49°44' W 000°26'714.3
2018-Jul-15 02:01N 49°50' W 000°30'714.4
2018-Jul-15 01:31N 49°57' W 000°34'714.3
2018-Jul-15 01:01N 50°04' W 000°38'714.7
2018-Jul-15 00:30N 50°11' W 000°41'915.7
2018-Jul-14 23:58N 50°19' W 000°46'816.9
2018-Jul-14 23:30N 50°26' W 000°50'817.0
2018-Jul-14 23:01N 50°34' W 000°56'815.8
2018-Jul-14 22:31N 50°41' W 001°00'714.3
2018-Jul-14 22:00N 50°47' W 001°06'2 3.1
2018-Jul-14 21:30N 50°49' W 001°06'0 0.0
2018-Jul-14 21:00N 50°49' W 001°06'0 0.0
2018-Jul-14 20:30N 50°49' W 001°06'1 2.2
2018-Jul-14 20:00N 50°48' W 001°07'713.6
2018-Jul-14 19:31N 50°43' W 000°59'918.1
2018-Jul-14 19:01N 50°34' W 000°56'918.8
2018-Jul-14 18:30N 50°25' W 000°52'918.1
2018-Jul-14 18:00N 50°16' W 000°48'918.4
2018-Jul-14 17:31N 50°07' W 000°44'918.8
2018-Jul-14 17:01N 49°59' W 000°40'1019.2
2018-Jul-14 16:30N 49°50' W 000°34'1019.1
2018-Jul-14 16:00N 49°41' W 000°28'1019.1
2018-Jul-14 15:30N 49°32' W 000°22'1019.1
2018-Jul-14 15:01N 49°23' W 000°16'612.2
2018-Jul-14 14:30N 49°17' W 000°15'0 0.0
2018-Jul-14 13:30N 49°17' W 000°15'0 0.1
2018-Jul-14 13:00N 49°17' W 000°15'612.6
2018-Jul-14 12:31N 49°24' W 000°15'1019.7
2018-Jul-14 12:00N 49°33' W 000°20'1019.9
2018-Jul-14 11:31N 49°42' W 000°25'1020.3
2018-Jul-14 11:01N 49°52' W 000°31'1020.6
2018-Jul-14 10:31N 50°01' W 000°38'1020.7
2018-Jul-14 10:00N 50°10' W 000°45'1019.2
2018-Jul-14 09:31N 50°19' W 000°48'1019.8
2018-Jul-14 09:01N 50°29' W 000°53'1019.6
2018-Jul-14 08:30N 50°38' W 000°58'917.9
2018-Jul-14 08:01N 50°46' W 001°05'3 5.8
2018-Jul-14 07:30N 50°49' W 001°06'0 0.0
2018-Jul-14 07:00N 50°49' W 001°06'0 0.0
2018-Jul-14 06:30N 50°49' W 001°06'0 0.0
2018-Jul-14 06:00N 50°49' W 001°06'0 0.2
2018-Jul-14 05:31N 50°49' W 001°06'4 8.9
2018-Jul-14 05:00N 50°44' W 001°04'714.4
2018-Jul-14 04:30N 50°38' W 000°58'714.7
2018-Jul-14 04:00N 50°31' W 000°55'815.3
2018-Jul-14 03:30N 50°24' W 000°52'715.0
2018-Jul-14 03:00N 50°17' W 000°49'815.3
2018-Jul-14 02:30N 50°09' W 000°44'713.5
2018-Jul-14 02:00N 50°04' W 000°39'611.8
2018-Jul-14 01:31N 49°58' W 000°35'611.5
2018-Jul-14 01:00N 49°53' W 000°31'611.3
2018-Jul-14 00:31N 49°48' W 000°28'510.8
2018-Jul-14 00:01N 49°43' W 000°24'510.8
2018-Jul-13 23:30N 49°38' W 000°21'510.5
2018-Jul-13 23:01N 49°33' W 000°19'510.0
2018-Jul-13 22:30N 49°28' W 000°18'5 9.9
2018-Jul-13 22:01N 49°23' W 000°15'510.4
2018-Jul-13 21:30N 49°18' W 000°15'1 1.7
2018-Jul-13 21:01N 49°17' W 000°15'0 0.0
2018-Jul-13 20:30N 49°17' W 000°15'0 0.0
2018-Jul-13 20:01N 49°17' W 000°15'0 0.0
2018-Jul-13 19:31N 49°17' W 000°15'4 7.2
2018-Jul-13 19:00N 49°21' W 000°14'918.7
2018-Jul-13 18:30N 49°30' W 000°18'918.9
2018-Jul-13 18:01N 49°39' W 000°22'918.4
2018-Jul-13 17:31N 49°47' W 000°28'918.4
2018-Jul-13 17:00N 49°56' W 000°33'918.3
2018-Jul-13 16:30N 50°04' W 000°40'918.5
2018-Jul-13 16:00N 50°13' W 000°45'918.3
2018-Jul-13 15:30N 50°21' W 000°50'918.9
2018-Jul-13 15:01N 50°30' W 000°54'1818.2
2018-Jul-13 14:01N 50°47' W 001°06'2 3.6
2018-Jul-13 13:30N 50°49' W 001°06'0 0.0
2018-Jul-13 13:00N 50°49' W 001°06'0 0.0
2018-Jul-13 12:30N 50°49' W 001°06'1 2.6
2018-Jul-13 12:00N 50°48' W 001°07'714.1
2018-Jul-13 11:31N 50°42' W 001°01'1019.6
2018-Jul-13 11:00N 50°32' W 000°56'1019.6
2018-Jul-13 10:30N 50°23' W 000°50'1019.7
2018-Jul-13 10:00N 50°14' W 000°45'919.3
2018-Jul-13 09:30N 50°04' W 000°41'1019.1
2018-Jul-13 09:00N 49°55' W 000°37'918.8
2018-Jul-13 08:30N 49°46' W 000°32'918.6
2018-Jul-13 08:01N 49°38' W 000°25'918.9
2018-Jul-13 07:30N 49°29' W 000°20'918.2
2018-Jul-13 07:01N 49°21' W 000°15'4 7.3
2018-Jul-13 06:30N 49°17' W 000°15'0 0.0
2018-Jul-13 06:00N 49°17' W 000°15'0 0.0
2018-Jul-13 05:30N 49°17' W 000°15'0 0.0
2018-Jul-13 05:00N 49°17' W 000°15'0 0.6
2018-Jul-13 04:30N 49°18' W 000°15'714.0
2018-Jul-13 04:00N 49°25' W 000°15'816.8
2018-Jul-13 03:30N 49°32' W 000°22'917.1
2018-Jul-13 03:01N 49°40' W 000°24'917.2
2018-Jul-13 02:31N 49°48' W 000°28'815.8
2018-Jul-13 02:01N 49°56' W 000°33'815.1
2018-Jul-13 01:31N 50°03' W 000°37'1114.5
2018-Jul-13 00:44N 50°13' W 000°44'614.8
2018-Jul-13 00:21N 50°19' W 000°47'915.3
2018-Jul-12 23:45N 50°27' W 000°52'414.7
2018-Jul-12 23:31N 50°30' W 000°54'815.0
2018-Jul-12 23:00N 50°37' W 000°59'714.4
2018-Jul-12 22:31N 50°44' W 001°03'510.3
2018-Jul-12 22:01N 50°49' W 001°06'0 0.7
2018-Jul-12 21:30N 50°49' W 001°06'0 0.0
2018-Jul-12 21:00N 50°49' W 001°06'0 0.0
2018-Jul-12 20:30N 50°49' W 001°06'2 3.2
2018-Jul-12 20:00N 50°47' W 001°06'815.7
2018-Jul-12 19:31N 50°41' W 000°59'918.8
2018-Jul-12 19:01N 50°32' W 000°53'1118.9
2018-Jul-12 18:24N 50°21' W 000°48'1319.0
2018-Jul-12 17:44N 50°09' W 000°41'419.2
2018-Jul-12 17:30N 50°05' W 000°39'1019.1
2018-Jul-12 17:00N 49°56' W 000°34'919.1
2018-Jul-12 16:30N 49°47' W 000°30'1019.4
2018-Jul-12 16:01N 49°38' W 000°25'1019.6
2018-Jul-12 15:30N 49°29' W 000°20'918.5
2018-Jul-12 15:00N 49°20' W 000°14'3 5.4
2018-Jul-12 14:31N 49°17' W 000°15'0 0.0
2018-Jul-12 14:01N 49°17' W 000°15'0 0.0
2018-Jul-12 13:31N 49°17' W 000°15'0 0.0
2018-Jul-12 13:01N 49°17' W 000°15'2 3.8
2018-Jul-12 12:31N 49°19' W 000°15'918.5
2018-Jul-12 12:00N 49°28' W 000°17'1019.4
2018-Jul-12 11:31N 49°38' W 000°22'1019.4
2018-Jul-12 11:00N 49°47' W 000°26'1019.6
2018-Jul-12 10:31N 49°56' W 000°29'1019.4
2018-Jul-12 10:01N 50°06' W 000°33'1019.3
2018-Jul-12 09:30N 50°15' W 000°40'1019.2
2018-Jul-12 09:00N 50°23' W 000°47'1019.4
2018-Jul-12 08:31N 50°32' W 000°54'918.8
2018-Jul-12 08:01N 50°40' W 000°60'816.2
2018-Jul-12 07:30N 50°47' W 001°06'2 3.2
2018-Jul-12 07:00N 50°49' W 001°06'0 0.0
2018-Jul-12 06:31N 50°49' W 001°06'0 0.0
2018-Jul-12 06:00N 50°49' W 001°06'1 1.4
2018-Jul-12 05:30N 50°48' W 001°07'612.1
2018-Jul-12 05:01N 50°43' W 001°02'817.0
2018-Jul-12 04:31N 50°36' W 000°56'816.2
2018-Jul-12 04:01N 50°29' W 000°50'1010.2
2018-Jul-12 03:01N 50°19' W 000°44'  

Dump ship's entire track history